Time;durP1;ratioP1;P1;durP2;ratioP2;P2;SDS_P1;SDS_P2;PMS_P1;PMS_P2;Temp;Humidity;BMP_temperature;BMP_pressure;BME280_temperature;BME280_humidity;BME280_pressure;Samples;Min_cycle;Max_cycle;Signal;HPM_P1;HPM_P2
2022/06/02 00:00:24;;;;;;;1.10;1.00;;;19.20;44.60;;;19.59;33.90;98782.88;4798662;29;123505;-91
2022/06/02 00:03:32;;;;;;;4.80;1.30;;;19.20;44.70;;;19.53;33.76;98791.94;4799368;29;123457;-93
2022/06/02 00:06:16;;;;;;;1.00;0.80;;;19.20;44.80;;;19.52;33.77;98795.94;4785232;29;115108;-89
2022/06/02 00:13:00;;;;;;;1.20;1.00;;;19.10;45.00;;;19.42;34.14;98791.75;4804568;29;124621;-90
2022/06/02 00:16:25;;;;;;;1.00;0.90;;;19.00;45.20;;;19.38;34.17;98788.88;4803529;29;123858;-90
2022/06/02 00:19:36;;;;;;;1.07;0.97;;;19.00;45.30;;;19.34;34.12;98802.03;4803229;29;114524;-89
2022/06/02 00:22:20;;;;;;;1.23;1.00;;;18.90;45.30;;;19.32;34.24;98803.59;4805066;29;113987;-89
2022/06/02 00:25:04;;;;;;;3.30;1.23;;;18.90;45.50;;;19.31;34.39;98796.34;4830884;29;123717;-89
2022/06/02 00:32:02;;;;;;;2.07;0.97;;;18.80;45.60;;;19.20;34.46;98793.34;4882778;29;116428;-90
2022/06/02 00:35:10;;;;;;;1.00;0.90;;;18.80;45.70;;;19.17;34.33;98794.06;4878005;28;114501;-91
2022/06/02 00:49:16;;;;;;;1.20;1.10;;;18.60;46.10;;;19.01;35.03;98793.34;4864004;29;114973;-90
2022/06/02 00:52:12;;;;;;;1.23;0.90;;;18.60;46.20;;;18.95;35.01;98790.03;4865813;29;125020;-90
2022/06/02 00:58:47;;;;;;;1.20;0.80;;;18.50;46.30;;;18.92;35.11;98793.59;4882709;29;115262;-92
2022/06/02 01:05:00;;;;;;;1.13;1.03;;;18.40;46.40;;;18.84;35.14;98801.03;4863693;28;125255;-90
2022/06/02 01:07:37;;;;;;;1.33;1.10;;;18.40;46.50;;;18.85;35.23;98807.44;4876670;29;123747;-91
2022/06/02 01:14:31;;;;;;;2.97;1.00;;;18.40;46.70;;;18.78;35.48;98810.91;4883273;29;114952;-89
2022/06/02 01:17:51;;;;;;;1.40;1.00;;;18.30;46.80;;;18.72;35.51;98804.72;4872784;28;125009;-89
2022/06/02 01:24:28;;;;;;;1.20;0.93;;;18.20;47.10;;;18.54;35.83;98812.75;4902786;28;115243;-88
2022/06/02 01:27:36;;;;;;;1.63;1.30;;;18.10;47.10;;;18.54;35.86;98807.16;4902244;28;114789;-90
2022/06/02 01:31:01;;;;;;;1.97;1.27;;;18.10;47.20;;;18.51;35.92;98810.69;4913083;28;123688;-90
2022/06/02 01:41:25;;;;;;;1.40;0.90;;;18.00;47.60;;;18.36;36.27;98828.31;4902965;28;116050;-89
2022/06/02 01:47:37;;;;;;;1.30;1.17;;;17.90;47.80;;;18.36;36.34;98825.50;4902306;28;124975;-85
2022/06/02 01:54:20;;;;;;;0.97;0.90;;;17.90;48.00;;;18.34;36.31;98830.66;4902852;28;116320;-89
2022/06/02 02:00:34;;;;;;;1.77;1.20;;;17.90;48.10;;;18.35;36.68;98829.50;4902607;28;124770;-89
2022/06/02 02:06:58;;;;;;;1.50;1.10;;;17.80;48.20;;;18.27;36.59;98836.09;4898075;28;114988;-88
2022/06/02 02:13:45;;;;;;;1.10;0.90;;;17.80;48.40;;;18.22;36.71;98847.56;4907762;28;124814;-92
2022/06/02 02:17:09;;;;;;;1.40;1.00;;;17.80;48.50;;;18.21;36.75;98843.91;4883156;28;116675;-90
2022/06/02 02:23:46;;;;;;;1.23;0.90;;;17.70;48.50;;;18.19;36.93;98851.03;4883224;28;125079;-85
2022/06/02 02:30:11;;;;;;;2.50;1.10;;;17.70;48.90;;;18.20;37.03;98849.91;4885111;28;115273;-90
2022/06/02 02:37:05;;;;;;;1.10;1.00;;;17.70;49.00;;;18.16;37.24;98844.22;4905543;28;125075;-83
2022/06/02 02:43:31;;;;;;;1.93;1.47;;;17.60;49.10;;;18.12;37.16;98857.28;4905392;28;116223;-90
2022/06/02 02:49:56;;;;;;;1.10;1.00;;;17.60;49.30;;;18.09;37.31;98856.03;4905005;28;125161;-90
2022/06/02 03:00:02;;;;;;;1.70;1.20;;;17.60;49.40;;;18.13;37.59;98850.50;4886535;28;114958;-88
2022/06/02 03:06:32;;;;;;;1.10;0.97;;;17.50;49.60;;;18.05;37.66;98848.72;4886265;28;124909;-84
2022/06/02 03:16:23;;;;;;;0.87;0.80;;;17.50;49.70;;;17.96;37.54;98857.28;4885510;28;125223;-81
2022/06/02 03:23:29;;;;;;;0.97;0.87;;;17.40;49.70;;;18.03;37.68;98867.84;4886711;28;115354;-79
2022/06/02 03:30:13;;;;;;;1.00;0.80;;;17.50;49.80;;;18.10;37.56;98868.81;4828615;29;125063;-82
2022/06/02 03:36:27;;;;;;;2.13;0.90;;;17.60;49.80;;;18.10;37.52;98868.81;4886008;28;115443;-91
2022/06/02 03:43:14;;;;;;;1.60;1.00;;;17.60;49.70;;;18.10;37.55;98879.19;4899282;28;125114;-89
2022/06/02 03:53:30;;;;;;;1.20;1.10;;;17.60;49.70;;;18.15;37.40;98886.53;4885268;29;115870;-92
2022/06/02 04:00:07;;;;;;;1.67;1.00;;;17.60;49.70;;;18.22;37.29;98889.50;4885485;28;124865;-84
2022/06/02 04:02:52;;;;;;;1.10;1.00;;;17.60;49.60;;;18.25;37.31;98880.38;4861725;28;112636;-92
2022/06/02 04:06:06;;;;;;;1.00;0.90;;;17.60;49.70;;;18.35;37.08;98888.22;4879112;29;114739;-91
2022/06/02 04:23:36;;;;;;;3.47;1.17;;;17.90;49.30;;;18.42;37.11;98891.19;4841286;29;124495;-91
2022/06/02 04:30:35;;;;;;;1.10;1.00;;;17.90;49.40;;;18.40;36.98;98887.94;4820727;29;114505;-90
2022/06/02 04:37:16;;;;;;;1.40;1.30;;;17.90;49.30;;;18.38;36.94;98893.09;4838921;29;124550;-92
2022/06/02 04:43:39;;;;;;;1.30;1.20;;;17.80;49.40;;;18.38;37.24;98903.47;4844656;29;114713;-91
2022/06/02 04:50:23;;;;;;;1.47;1.37;;;17.80;49.60;;;18.33;37.34;98904.56;4894261;28;125089;-90
2022/06/02 04:53:47;;;;;;;1.43;1.30;;;17.80;49.60;;;18.28;37.10;98890.84;4916203;28;123011;-93
2022/06/02 05:00:41;;;;;;;1.20;1.10;;;17.80;49.50;;;18.33;37.09;98901.75;4878321;29;115987;-91
2022/06/02 05:03:13;;;;;;;1.60;1.30;;;17.80;49.60;;;18.40;37.49;98904.72;4886725;28;124640;-91
2022/06/02 05:06:13;;;;;;;1.73;0.90;;;17.80;49.60;;;18.45;37.24;98904.44;4873136;28;122964;-91
2022/06/02 05:12:47;;;;;;;1.47;1.37;;;17.90;49.60;;;18.48;37.16;98906.53;4900633;28;115014;-91
2022/06/02 05:15:43;;;;;;;2.17;1.63;;;17.90;49.60;;;18.44;37.29;98902.03;4899617;28;123646;-93
2022/06/02 05:18:50;;;;;;;1.57;1.33;;;17.90;49.70;;;18.44;37.27;98911.22;4894127;28;123607;-91
2022/06/02 05:25:43;;;;;;;2.00;1.00;;;17.90;49.80;;;18.56;37.28;98924.28;4892960;28;114955;-92
2022/06/02 05:28:49;;;;;;;2.77;1.70;;;18.00;49.90;;;18.60;37.27;98932.78;4890324;28;124636;-91
2022/06/02 05:31:41;;;;;;;1.77;1.30;;;18.00;50.00;;;18.60;37.26;98918.81;4884610;28;122662;-92
2022/06/02 05:34:53;;;;;;;1.40;1.30;;;18.00;50.00;;;18.63;37.29;98926.47;4872899;28;114105;-92
2022/06/02 05:37:31;;;;;;;1.50;1.10;;;18.10;50.10;;;18.74;37.26;98933.97;4880198;28;112861;-90
2022/06/02 05:40:38;;;;;;;1.10;1.00;;;18.10;50.00;;;18.83;37.15;98928.16;4885397;28;123358;-93
2022/06/02 05:43:56;;;;;;;1.10;1.00;;;18.20;49.90;;;18.93;36.98;98933.19;4888304;28;123774;-92
2022/06/02 05:47:04;;;;;;;1.10;1.00;;;18.30;49.90;;;19.00;37.01;98932.56;4874177;28;113512;-91
2022/06/02 05:50:06;;;;;;;4.80;1.60;;;18.40;49.80;;;19.05;36.63;98932.28;4883314;28;113164;-90
2022/06/02 05:52:43;;;;;;;2.60;1.67;;;18.40;49.40;;;19.13;36.40;98936.88;4878625;28;124177;-93
2022/06/02 05:59:34;;;;;;;1.47;1.20;;;18.50;48.90;;;19.19;35.92;98941.00;4874502;28;115446;-92
2022/06/02 06:02:33;;;;;;;1.70;1.30;;;18.60;48.70;;;19.19;35.74;98935.38;4889833;28;115216;-93
2022/06/02 06:06:18;;;;;;;1.40;1.20;;;18.50;48.40;;;19.22;35.92;98933.84;4887288;28;124470;-92
2022/06/02 06:09:42;;;;;;;1.23;1.13;;;18.60;48.50;;;19.33;35.88;98934.88;4808058;29;123733;-93
2022/06/02 06:12:30;;;;;;;1.70;1.30;;;18.70;48.50;;;19.41;35.61;98939.44;4747579;29;113197;-92
2022/06/02 06:15:29;;;;;;;1.80;1.40;;;18.80;48.40;;;19.39;35.43;98944.59;4876478;28;112055;-92
2022/06/02 06:18:25;;;;;;;2.57;1.73;;;18.80;48.00;;;19.37;35.65;98934.94;4882624;28;124067;-93
2022/06/02 06:21:30;;;;;;;2.40;1.40;;;18.80;48.00;;;19.39;35.63;98936.19;4855245;28;123367;-90
2022/06/02 06:24:42;;;;;;;3.60;1.80;;;18.80;48.10;;;19.43;35.39;98934.28;4867700;28;113430;-90
2022/06/02 06:27:38;;;;;;;1.50;1.40;;;18.90;48.20;;;19.48;35.51;98940.78;4861286;28;113442;-91
2022/06/02 06:30:08;;;;;;;1.33;1.20;;;18.90;48.20;;;19.56;35.39;98943.38;4862879;28;123804;-91
2022/06/02 06:33:14;;;;;;;2.13;1.30;;;19.00;48.30;;;19.60;35.28;98943.44;4877305;28;124373;-91
2022/06/02 06:39:58;;;;;;;1.53;1.20;;;19.10;48.20;;;19.76;35.58;98944.19;4885587;28;114365;-92
2022/06/02 06:42:46;;;;;;;2.50;1.30;;;19.20;48.40;;;19.86;35.36;98935.19;4865902;28;123307;-81
2022/06/02 06:45:50;;;;;;;1.13;1.00;;;19.20;48.20;;;19.93;35.54;98950.50;4873159;28;123965;-91
2022/06/02 06:48:30;;;;;;;1.63;1.53;;;19.30;48.40;;;20.03;35.11;98938.69;4870766;28;114195;-92
2022/06/02 06:51:17;;;;;;;3.63;1.47;;;19.40;48.40;;;20.10;35.37;98941.63;4857162;28;114120;-91
2022/06/02 06:53:59;;;;;;;2.27;1.60;;;19.40;48.20;;;20.12;34.94;98935.63;4854985;28;123770;-91
2022/06/02 06:57:24;;;;;;;2.50;1.50;;;19.50;48.10;;;20.14;34.86;98939.69;4873252;28;124005;-92
2022/06/02 07:00:19;;;;;;;2.47;1.57;;;19.50;48.00;;;20.18;34.82;98937.78;4875562;28;114934;-92
2022/06/02 07:03:27;;;;;;;2.87;2.07;;;19.60;48.10;;;20.20;34.98;98943.84;4852665;28;115159;-91
2022/06/02 07:06:05;;;;;;;2.03;1.40;;;19.60;48.10;;;20.22;35.10;98941.44;4859696;28;125798;-91
2022/06/02 07:08:44;;;;;;;2.30;1.50;;;19.60;48.20;;;20.32;35.03;98947.63;4850357;29;122760;-92
2022/06/02 07:14:50;;;;;;;1.10;1.00;;;19.70;48.10;;;20.52;34.58;98946.34;4878411;28;115043;-90
2022/06/02 07:17:46;;;;;;;1.43;1.23;;;19.80;48.10;;;20.64;34.83;98951.81;4852537;28;123325;-92
2022/06/02 07:20:50;;;;;;;1.30;1.07;;;19.90;48.00;;;20.79;34.34;98954.84;4864393;28;124364;-92
2022/06/02 07:23:55;;;;;;;2.43;1.50;;;20.00;48.00;;;20.81;34.32;98944.84;4865355;28;113368;-92
2022/06/02 07:27:18;;;;;;;4.07;1.93;;;20.20;47.50;;;20.68;34.21;98944.25;4861809;28;112754;-91
2022/06/02 07:30:09;;;;;;;1.53;1.43;;;20.10;47.30;;;20.69;34.31;98943.06;4781907;29;123927;-93
2022/06/02 07:33:03;;;;;;;2.53;1.50;;;20.10;47.50;;;20.74;34.26;98934.34;4872042;28;122902;-93
2022/06/02 07:36:09;;;;;;;1.33;1.20;;;20.10;47.50;;;20.88;34.48;98944.16;4888874;28;113675;-94
2022/06/02 07:39:08;;;;;;;2.60;1.50;;;20.20;47.60;;;20.92;34.23;98939.41;4885584;28;113288;-94
2022/06/02 07:42:12;;;;;;;3.30;1.70;;;20.30;47.40;;;20.92;34.11;98936.59;4859286;28;123431;-93
2022/06/02 07:45:04;;;;;;;1.67;1.30;;;20.30;47.20;;;20.96;34.24;98937.47;4882159;28;124405;-93
2022/06/02 07:47:53;;;;;;;1.60;1.37;;;20.30;47.30;;;21.02;34.30;98937.94;4876047;28;114203;-94
2022/06/02 07:50:48;;;;;;;1.47;1.30;;;20.40;47.40;;;21.08;33.96;98942.03;4862344;28;113331;-93
2022/06/02 07:54:12;;;;;;;2.17;1.40;;;20.40;47.30;;;21.14;34.22;98940.50;4841715;28;122775;-91
2022/06/02 07:57:09;;;;;;;2.53;1.30;;;20.50;47.30;;;21.27;34.05;98944.72;4869412;28;123656;-92
2022/06/02 08:00:09;;;;;;;4.40;1.20;;;20.60;47.40;;;21.38;33.94;98942.06;4875173;28;115592;-92
2022/06/02 08:03:09;;;;;;;4.70;1.50;;;20.70;47.30;;;21.48;33.60;98934.97;4879244;28;115085;-92
2022/06/02 08:05:45;;;;;;;3.50;1.40;;;20.80;47.30;;;21.55;33.41;98944.31;4881136;28;124279;-91
2022/06/02 08:08:55;;;;;;;4.87;1.90;;;20.90;47.10;;;21.55;33.08;98938.69;4877301;28;123880;-92
2022/06/02 08:11:47;;;;;;;2.47;1.43;;;20.90;46.70;;;21.56;33.25;98933.88;4874383;28;112865;-93
2022/06/02 08:14:55;;;;;;;3.40;1.33;;;21.00;46.80;;;21.58;33.40;98937.94;4864151;28;114028;-91
2022/06/02 08:17:42;;;;;;;1.50;1.23;;;21.00;46.60;;;21.62;33.27;98937.97;4878846;28;123500;-93
2022/06/02 08:20:51;;;;;;;1.93;1.50;;;21.00;46.60;;;21.66;33.33;98938.03;4877816;28;97696;-92
2022/06/02 08:23:23;;;;;;;1.70;1.50;;;21.00;46.40;;;21.69;32.88;98942.88;4884886;28;114392;-92
2022/06/02 08:25:56;;;;;;;2.30;1.90;;;21.00;46.20;;;21.69;33.27;98943.69;4873875;28;114253;-93
2022/06/02 08:28:41;;;;;;;3.63;2.10;;;21.00;46.30;;;21.73;32.97;98952.97;4880574;28;124043;-92
2022/06/02 08:32:04;;;;;;;1.83;1.63;;;21.10;46.40;;;21.77;33.28;98938.94;4878534;28;124122;-92
2022/06/02 08:35:15;;;;;;;2.20;1.63;;;21.10;46.20;;;21.83;32.74;98941.03;4800157;28;112847;-92
2022/06/02 08:38:33;;;;;;;3.83;2.23;;;21.20;46.10;;;21.85;32.55;98946.28;4862027;28;112981;-93
2022/06/02 08:41:30;;;;;;;3.20;1.70;;;21.20;45.80;;;21.89;32.74;98949.13;4884165;28;123793;-94
2022/06/02 08:44:25;;;;;;;1.60;1.20;;;21.20;45.80;;;21.88;32.67;98945.50;4866248;28;123010;-92
2022/06/02 08:51:30;;;;;;;2.43;1.43;;;21.30;45.20;;;21.83;32.51;98943.03;4874894;28;114657;-93
2022/06/02 08:54:45;;;;;;;1.63;1.30;;;21.30;45.10;;;21.79;32.59;98945.00;4875899;28;123685;-93
2022/06/02 08:57:31;;;;;;;2.90;1.20;;;21.30;45.30;;;21.87;32.30;98948.69;4874491;28;121936;-93
2022/06/02 09:00:39;;;;;;;1.27;1.17;;;21.30;45.40;;;21.93;32.41;98945.16;4869275;28;113893;-91
2022/06/02 09:03:46;;;;;;;3.83;1.50;;;21.40;45.50;;;21.95;32.66;98942.78;4877482;28;115198;-94
2022/06/02 09:06:40;;;;;;;7.27;1.60;;;21.40;45.50;;;21.98;32.80;98941.19;4882111;28;124445;-92
2022/06/02 09:09:53;;;;;;;1.57;1.37;;;21.40;45.60;;;21.98;32.52;98949.63;4888842;28;123969;-93
2022/06/02 09:12:29;;;;;;;3.00;1.63;;;21.40;45.70;;;21.99;32.42;98945.63;4878332;28;113895;-93
2022/06/02 09:15:50;;;;;;;2.50;1.33;;;21.40;45.60;;;21.99;32.94;98940.00;4897137;28;113756;-93
2022/06/02 09:19:05;;;;;;;1.80;1.50;;;21.40;45.70;;;22.02;32.37;98939.22;4892519;28;123453;-93
2022/06/02 09:21:56;;;;;;;2.70;1.43;;;21.50;45.60;;;22.05;32.34;98933.63;4876557;28;123108;-91
2022/06/02 09:25:11;;;;;;;2.20;1.60;;;21.40;45.20;;;22.01;32.32;98938.41;4874027;28;113946;-92
2022/06/02 09:31:20;;;;;;;4.30;1.80;;;21.40;45.40;;;21.98;32.48;98942.00;4871352;28;123891;-92
2022/06/02 09:34:26;;;;;;;1.50;1.27;;;21.40;45.40;;;22.02;32.25;98942.84;4892146;28;123218;-92
2022/06/02 09:37:30;;;;;;;3.00;1.60;;;21.50;45.30;;;22.09;32.37;98938.50;4852027;28;113764;-93
2022/06/02 09:40:31;;;;;;;1.83;1.57;;;21.50;45.30;;;22.17;32.49;98946.63;4856264;28;113361;-93
2022/06/02 09:43:36;;;;;;;1.30;1.20;;;21.60;45.40;;;22.22;32.16;98940.66;4875430;28;122176;-93
2022/06/02 09:46:31;;;;;;;1.73;1.27;;;21.50;45.20;;;22.30;32.06;98944.38;4870558;28;123697;-92
2022/06/02 09:49:26;;;;;;;1.40;1.30;;;21.70;45.30;;;22.34;32.21;98941.56;4837276;28;114274;-93
2022/06/02 09:52:23;;;;;;;1.33;1.23;;;21.80;45.30;;;22.38;32.35;98933.97;4859473;28;113690;-92
2022/06/02 09:55:36;;;;;;;3.90;1.37;;;21.80;45.30;;;22.34;32.07;98938.75;4823049;28;122559;-93
2022/06/02 09:58:41;;;;;;;4.30;1.67;;;21.80;45.00;;;22.37;32.21;98933.16;4878491;28;124065;-93
2022/06/02 10:01:34;;;;;;;4.80;2.13;;;21.80;45.00;;;22.39;31.66;98933.59;4855863;28;114933;-92
2022/06/02 10:04:46;;;;;;;3.10;1.60;;;21.80;44.60;;;22.41;31.76;98936.03;4882177;28;114531;-93
2022/06/02 10:07:16;;;;;;;1.50;1.40;;;21.90;44.80;;;22.46;31.64;98925.22;4871736;28;124161;-94
2022/06/02 10:10:09;;;;;;;1.20;1.10;;;21.90;44.80;;;22.52;31.79;98922.03;4876158;28;124041;-92
2022/06/02 10:13:03;;;;;;;2.10;1.60;;;22.00;44.70;;;22.58;31.68;98914.84;4842309;28;114668;-92
2022/06/02 10:16:03;;;;;;;2.67;1.50;;;22.00;44.80;;;22.65;31.72;98917.72;4859119;28;114229;-94
2022/06/02 10:19:07;;;;;;;1.50;1.30;;;22.10;45.00;;;22.73;31.94;98902.47;4878333;28;123797;-95
2022/06/02 10:21:59;;;;;;;3.43;1.10;;;22.10;45.00;;;22.83;31.99;98895.28;4871041;28;124099;-92
2022/06/02 10:25:22;;;;;;;3.13;1.30;;;22.20;45.00;;;22.84;31.85;98894.91;4874776;28;115576;-93
2022/06/02 10:28:42;;;;;;;2.17;1.50;;;22.30;45.00;;;22.86;32.03;98902.94;4887286;28;114403;-94
2022/06/02 10:31:32;;;;;;;4.70;1.60;;;22.30;45.00;;;22.86;31.89;98906.59;4866394;28;124348;-94
2022/06/02 10:34:48;;;;;;;2.50;1.60;;;22.30;44.90;;;22.85;32.07;98904.16;4868546;28;123544;-92
2022/06/02 10:37:55;;;;;;;1.77;1.40;;;22.30;44.90;;;22.88;31.97;98907.00;4871123;28;113340;-93
2022/06/02 10:40:28;;;;;;;1.40;1.30;;;22.30;45.10;;;22.99;31.96;98909.09;4858013;28;114472;-91
2022/06/02 10:43:39;;;;;;;2.17;1.50;;;22.40;45.40;;;23.07;32.03;98902.31;4871822;28;123951;-91
2022/06/02 10:47:02;;;;;;;1.97;1.23;;;22.50;45.20;;;23.07;31.86;98894.66;4876768;28;123900;-91
2022/06/02 10:50:26;;;;;;;2.23;1.20;;;22.50;45.00;;;23.08;31.88;98896.28;4874870;28;114007;-94
2022/06/02 10:53:40;;;;;;;2.73;1.40;;;22.60;44.90;;;23.16;31.84;98902.78;4819545;29;113801;-92
2022/06/02 10:56:25;;;;;;;2.10;1.60;;;22.60;45.00;;;23.23;31.30;98899.97;4801659;29;124515;-91
2022/06/02 10:59:22;;;;;;;1.73;1.43;;;22.60;44.80;;;23.30;31.37;98890.75;4819012;29;125576;-91
2022/06/02 11:02:21;;;;;;;1.50;1.40;;;22.70;44.80;;;23.32;31.21;98891.97;4817760;29;115410;-92
2022/06/02 11:05:23;;;;;;;2.50;1.63;;;22.70;44.50;;;23.37;31.59;98883.13;4765520;29;115118;-92
2022/06/02 11:08:25;;;;;;;3.57;1.60;;;22.80;44.60;;;23.44;31.67;98881.53;4722659;29;124145;-92
2022/06/02 11:11:13;;;;;;;7.47;2.10;;;22.80;44.80;;;23.53;31.31;98874.31;4760343;29;124993;-91
2022/06/02 11:14:25;;;;;;;6.03;1.80;;;23.00;44.90;;;23.66;31.38;98865.50;4754965;29;114461;-92
2022/06/02 11:17:28;;;;;;;4.90;1.60;;;23.10;44.60;;;23.73;30.76;98872.00;4765109;29;114004;-92
2022/06/02 11:20:25;;;;;;;2.63;1.60;;;23.10;44.30;;;23.78;30.81;98870.81;4765913;29;124492;-93
2022/06/02 11:24:09;;;;;;;1.60;1.20;;;23.20;44.10;;;23.86;31.00;98874.41;4746923;29;123616;-91
2022/06/02 11:27:12;;;;;;;2.50;1.50;;;23.30;44.30;;;23.98;30.70;98865.59;4716211;29;114643;-92
2022/06/02 11:30:04;;;;;;;2.43;1.47;;;23.40;44.00;;;24.03;30.36;98862.38;4785099;29;113695;-94
2022/06/02 11:33:07;;;;;;;2.60;1.57;;;23.50;43.80;;;24.13;30.52;98861.56;4797600;29;124334;-90
2022/06/02 11:36:10;;;;;;;5.50;1.80;;;23.60;43.90;;;24.21;30.46;98856.75;4795887;29;124050;-91
2022/06/02 11:38:57;;;;;;;3.50;1.67;;;23.60;43.80;;;24.27;30.33;98857.94;4810081;29;113775;-94
2022/06/02 11:41:45;;;;;;;1.90;1.10;;;23.70;43.70;;;24.37;30.43;98862.00;4819796;28;114198;-94
2022/06/02 11:44:54;;;;;;;2.13;1.10;;;23.80;43.70;;;24.49;30.11;98858.78;4871073;28;124093;-91
2022/06/02 11:48:05;;;;;;;1.43;1.33;;;23.90;43.80;;;24.63;30.29;98855.91;4815634;29;123199;-92
2022/06/02 11:51:12;;;;;;;2.73;1.60;;;24.00;43.80;;;24.74;30.22;98838.16;4812328;29;114583;-93
2022/06/02 11:54:07;;;;;;;2.77;1.77;;;24.20;43.60;;;24.82;29.79;98834.88;4856615;28;114108;-92
2022/06/02 11:57:17;;;;;;;1.60;1.40;;;24.20;43.10;;;24.87;29.81;98836.50;4866191;28;123783;-92
2022/06/02 12:00:18;;;;;;;1.90;1.47;;;24.30;43.60;;;25.00;29.49;98834.84;4874014;28;124067;-91
2022/06/02 12:03:35;;;;;;;2.27;1.30;;;24.40;43.20;;;25.16;29.81;98830.78;4877975;28;114777;-94
2022/06/02 12:06:52;;;;;;;3.20;1.83;;;24.50;43.20;;;25.29;29.51;98831.94;4890950;28;113606;-96
2022/06/02 12:09:42;;;;;;;2.63;1.40;;;24.70;43.00;;;25.40;29.33;98827.03;4826794;29;123872;-93
2022/06/02 12:12:36;;;;;;;1.57;1.43;;;24.80;42.80;;;25.46;29.30;98833.88;4834807;29;123909;-92
2022/06/02 12:16:01;;;;;;;1.20;1.10;;;24.80;42.60;;;25.51;29.27;98827.78;4837750;29;113492;-92
2022/06/02 12:19:03;;;;;;;1.67;1.47;;;24.90;42.50;;;25.62;28.91;98835.41;4838222;29;114201;-93
2022/06/02 12:22:08;;;;;;;2.17;1.20;;;25.10;42.60;;;25.70;28.86;98831.31;4833865;29;123135;-92
2022/06/02 12:25:22;;;;;;;2.47;1.40;;;25.10;42.60;;;25.81;29.32;98837.69;4832096;29;123818;-93
2022/06/02 12:28:25;;;;;;;3.40;1.53;;;25.20;42.60;;;25.88;28.54;98840.53;4833433;29;114338;-91
2022/06/02 12:31:03;;;;;;;2.00;1.40;;;25.30;41.70;;;25.82;28.26;98833.66;4837400;29;113021;-94
2022/06/02 12:34:15;;;;;;;2.57;1.77;;;25.30;41.60;;;25.77;28.62;98828.44;4847261;29;124692;-89
2022/06/02 12:37:00;;;;;;;1.60;1.30;;;25.30;41.60;;;25.87;28.82;98818.28;4852708;28;122324;-94
2022/06/02 12:39:59;;;;;;;2.40;1.40;;;25.30;42.00;;;25.97;28.92;98815.38;4835648;29;114398;-93
2022/06/02 12:43:02;;;;;;;3.93;1.37;;;25.40;42.80;;;26.08;28.29;98814.50;4831735;29;113392;-93
2022/06/02 12:46:03;;;;;;;3.97;1.80;;;25.50;42.00;;;26.12;27.93;98807.59;4833384;29;123958;-93
2022/06/02 12:48:43;;;;;;;2.40;1.60;;;25.60;41.90;;;26.15;28.24;98806.75;4832527;29;123291;-92
2022/06/02 12:52:06;;;;;;;3.30;1.90;;;25.50;41.60;;;26.20;28.55;98811.16;4842647;28;114437;-94
2022/06/02 12:55:09;;;;;;;3.60;2.00;;;25.70;41.80;;;26.27;28.33;98813.91;4834847;29;114183;-84
2022/06/02 12:58:11;;;;;;;2.87;2.00;;;25.70;41.50;;;26.30;28.49;98818.75;4833323;29;124066;-83
2022/06/02 13:00:57;;;;;;;2.20;1.50;;;25.80;41.60;;;26.36;28.46;98804.94;4835107;29;124165;-83
2022/06/02 13:04:31;;;;;;;2.27;1.70;;;25.80;41.60;;;26.38;28.37;98806.16;4835463;29;115592;-83
2022/06/02 13:07:46;;;;;;;2.77;1.60;;;25.90;41.30;;;26.51;27.70;98816.94;4852584;29;113213;-88
2022/06/02 13:10:43;;;;;;;1.90;1.27;;;26.00;41.20;;;26.61;27.85;98816.06;4852712;28;122120;-89
2022/06/02 13:13:44;;;;;;;1.50;1.20;;;26.00;41.30;;;26.74;27.76;98808.63;4851550;29;124050;-90
2022/06/02 13:16:39;;;;;;;2.03;1.20;;;26.10;41.30;;;26.87;27.57;98806.88;4829428;29;114210;-93
2022/06/02 13:19:11;;;;;;;2.90;1.20;;;26.30;41.20;;;27.01;27.95;98796.59;4854332;28;113175;-90
2022/06/02 13:22:19;;;;;;;1.73;1.40;;;26.40;41.20;;;27.10;27.91;98791.19;4856104;28;123250;-95
2022/06/02 13:25:08;;;;;;;11.20;1.77;;;26.50;40.90;;;27.15;26.93;98790.72;4846529;28;123654;-91
2022/06/02 13:28:17;;;;;;;2.63;1.80;;;26.50;40.10;;;27.13;26.97;98800.88;4851691;28;114337;-90
2022/06/02 13:31:23;;;;;;;8.77;2.30;;;26.60;40.30;;;27.11;27.17;98804.16;4868167;28;112901;-90
2022/06/02 13:34:16;;;;;;;5.93;1.77;;;26.60;39.90;;;27.04;27.19;98788.03;4852050;28;124036;-91
2022/06/02 13:37:35;;;;;;;2.90;1.50;;;26.60;39.80;;;26.91;27.20;98789.00;4848782;28;123854;-90
2022/06/02 13:40:38;;;;;;;1.93;1.20;;;26.50;39.60;;;26.87;27.25;98804.03;4846194;28;113378;-89
2022/06/02 13:43:44;;;;;;;1.27;1.17;;;26.50;40.10;;;26.89;27.71;98809.25;4856230;28;113074;-90
2022/06/02 13:46:48;;;;;;;3.70;1.40;;;26.50;40.30;;;26.94;27.84;98811.63;4852155;28;124133;-90
2022/06/02 13:49:39;;;;;;;6.67;1.43;;;26.50;40.50;;;26.99;27.36;98807.53;4853604;28;123912;-92
2022/06/02 13:52:20;;;;;;;4.10;1.50;;;26.50;40.40;;;27.00;27.29;98809.97;4853711;28;113462;-93
2022/06/02 13:58:41;;;;;;;1.43;1.23;;;26.50;40.00;;;26.94;27.17;98805.97;4857107;28;124638;-89
2022/06/02 14:01:38;;;;;;;1.20;1.10;;;26.50;40.00;;;26.97;27.63;98792.97;4852100;28;123063;-93
2022/06/02 14:04:32;;;;;;;1.90;1.43;;;26.50;40.20;;;27.01;27.57;98790.91;4873681;28;114818;-94
2022/06/02 14:07:09;;;;;;;8.93;1.30;;;26.50;40.30;;;27.12;27.18;98788.75;4854130;28;114008;-91
2022/06/02 14:09:57;;;;;;;1.30;1.20;;;26.60;40.50;;;27.23;27.51;98783.75;4849850;28;124689;-89
2022/06/02 14:13:16;;;;;;;3.17;1.40;;;26.70;40.50;;;27.38;27.76;98786.38;4852876;29;123965;-92
2022/06/02 14:16:10;;;;;;;1.33;1.10;;;26.80;40.60;;;27.55;27.25;98782.50;4850101;28;112593;-90
2022/06/02 14:19:06;;;;;;;1.50;1.40;;;26.90;40.60;;;27.67;27.02;98773.41;4850617;28;115187;-90
2022/06/02 14:22:33;;;;;;;2.00;1.20;;;27.10;40.10;;;27.76;26.99;98770.81;4846537;28;125040;-90
2022/06/02 14:25:33;;;;;;;1.67;1.40;;;27.20;40.10;;;27.82;26.66;98773.22;4817268;29;124396;-91
2022/06/02 14:28:21;;;;;;;2.90;1.60;;;27.20;39.60;;;27.87;26.74;98778.41;4847094;28;114207;-89
2022/06/02 14:31:04;;;;;;;1.37;1.20;;;27.30;39.50;;;27.89;26.79;98776.75;4849398;28;113926;-89
2022/06/02 14:33:36;;;;;;;1.30;1.20;;;27.30;39.40;;;27.87;26.63;98782.06;4850820;28;123967;-88
2022/06/02 14:36:20;;;;;;;1.87;1.27;;;27.40;39.40;;;27.86;26.90;98776.78;4853944;28;123870;-87
2022/06/02 14:39:19;;;;;;;1.43;1.17;;;27.40;39.40;;;27.83;26.64;98786.16;4846168;28;114228;-90
2022/06/02 14:42:10;;;;;;;4.00;1.50;;;27.40;39.30;;;27.77;26.58;98783.78;4852807;28;114169;-89
2022/06/02 14:45:08;;;;;;;1.83;1.20;;;27.40;39.90;;;27.63;26.78;98789.69;4865896;28;122528;-89
2022/06/02 14:47:56;;;;;;;2.37;1.30;;;27.30;38.90;;;27.50;26.61;98785.81;4850236;28;123694;-89
2022/06/02 14:50:44;;;;;;;1.20;1.10;;;27.20;39.00;;;27.39;27.09;98774.63;4850694;28;114269;-89
2022/06/02 14:53:26;;;;;;;1.00;0.90;;;27.10;39.30;;;27.38;26.94;98778.72;4853200;28;113109;-87
2022/06/02 14:55:53;;;;;;;1.30;1.20;;;27.00;39.60;;;27.38;27.44;98777.88;4847913;28;123973;-89
2022/06/02 14:58:47;;;;;;;2.17;1.50;;;27.00;39.70;;;27.36;27.35;98774.69;4851136;28;124432;-90
2022/06/02 15:01:28;;;;;;;2.10;1.40;;;26.90;39.70;;;27.29;27.29;98782.03;4854250;28;115199;-88
2022/06/02 15:04:50;;;;;;;1.27;1.17;;;26.90;39.50;;;27.17;27.12;98784.66;4850411;28;115343;-92
2022/06/02 15:07:40;;;;;;;1.53;1.33;;;26.80;39.70;;;27.14;27.39;98774.94;4814418;29;124156;-90
2022/06/02 15:10:18;;;;;;;2.67;1.30;;;26.70;39.80;;;27.08;27.26;98771.78;4848264;28;124029;-91
2022/06/02 15:13:09;;;;;;;2.50;1.60;;;26.70;39.50;;;26.96;27.53;98777.19;4863760;28;113874;-89
2022/06/02 15:16:08;;;;;;;2.67;1.33;;;26.60;40.50;;;26.87;27.71;98772.03;4853380;28;114609;-90
2022/06/02 15:19:14;;;;;;;3.17;1.30;;;26.50;39.90;;;26.80;27.52;98772.13;4848643;28;124519;-89
2022/06/02 15:22:23;;;;;;;1.50;1.33;;;26.40;40.10;;;26.76;27.81;98765.66;4864887;28;124295;-89
2022/06/02 15:25:10;;;;;;;2.60;1.20;;;26.40;40.20;;;26.71;27.97;98754.81;4849982;28;114382;-89
2022/06/02 15:28:20;;;;;;;1.30;1.13;;;26.30;40.30;;;26.68;28.06;98759.31;4852639;28;113995;-88